Time;durP1;ratioP1;P1;durP2;ratioP2;P2;SDS_P1;SDS_P2;PMS_P1;PMS_P2;Temp;Humidity;BMP_temperature;BMP_pressure;BME280_temperature;BME280_humidity;BME280_pressure;Samples;Min_cycle;Max_cycle;Signal;HPM_P1;HPM_P2
2022/10/15 09:36:00;;;;;;;2.42;0.85;;;;;;;15.07;98.27;96199.53;2104439;27;20554;-78
2022/10/15 09:37:15;;;;;;;7.25;0.90;;;;;;;15.14;98.46;96203.41;2086971;28;20235;-77
2022/10/15 09:38:32;;;;;;;1.38;0.80;;;;;;;15.25;98.66;96216.66;2076576;28;20330;-78
2022/10/15 09:40:03;;;;;;;3.13;0.85;;;;;;;15.24;98.04;96204.44;2091252;28;20666;-77
2022/10/15 09:41:33;;;;;;;2.85;0.90;;;;;;;15.29;97.20;96215.47;2078205;28;20196;-77
2022/10/15 09:42:38;;;;;;;2.10;1.00;;;;;;;15.28;97.24;96200.63;2073729;28;20275;-77
2022/10/15 09:43:40;;;;;;;3.50;0.90;;;;;;;15.39;97.18;96210.41;2072538;28;20213;-78
2022/10/15 09:44:44;;;;;;;2.10;1.10;;;;;;;15.44;96.22;96213.56;2069253;28;20202;-77
2022/10/15 09:45:45;;;;;;;1.92;1.00;;;;;;;15.50;95.85;96197.34;2078561;28;20228;-78
2022/10/15 09:46:50;;;;;;;3.13;1.50;;;;;;;15.55;95.11;96198.78;2077307;28;20209;-78
2022/10/15 09:47:56;;;;;;;3.65;1.50;;;;;;;15.65;95.15;96186.66;2082683;28;20191;-77
2022/10/15 09:49:07;;;;;;;3.80;1.17;;;;;;;15.87;94.30;96199.13;2088570;28;20711;-78
2022/10/15 09:50:12;;;;;;;3.05;1.20;;;;;;;16.10;93.79;96207.09;2092036;28;20282;-78
2022/10/15 09:51:33;;;;;;;2.97;1.05;;;;;;;16.41;91.87;96205.66;2086247;28;20251;-78
2022/10/15 09:53:02;;;;;;;2.92;1.17;;;;;;;17.06;91.00;96206.03;2068890;28;20241;-77
2022/10/15 09:54:21;;;;;;;2.15;1.17;;;;;;;18.04;87.18;96208.94;2077997;28;20288;-78
2022/10/15 09:55:44;;;;;;;3.58;1.20;;;;;;;19.68;78.87;96211.84;2078471;28;20215;-78
2022/10/15 09:56:51;;;;;;;3.65;1.10;;;;;;;19.56;77.30;96194.38;2079468;28;20220;-79
2022/10/15 09:57:57;;;;;;;2.10;1.45;;;;;;;19.97;77.09;96211.09;2074971;28;20228;-79
2022/10/15 09:58:58;;;;;;;2.45;1.20;;;;;;;21.02;73.18;96192.72;2084690;28;20208;-79
2022/10/15 10:00:04;;;;;;;2.70;1.05;;;;;;;21.45;72.71;96209.88;2082391;28;20221;-79
2022/10/15 10:01:18;;;;;;;18.80;1.42;;;;;;;20.54;73.67;96205.94;2076650;28;20197;-79
2022/10/15 10:02:22;;;;;;;2.03;0.90;;;;;;;20.07;74.98;96211.09;2075444;28;20193;-78
2022/10/15 10:03:27;;;;;;;3.03;1.02;;;;;;;20.02;75.60;96195.63;2082306;28;20261;-79
2022/10/15 10:04:31;;;;;;;1.90;1.10;;;;;;;19.64;77.05;96212.25;2084919;28;20212;-79
2022/10/15 10:05:35;;;;;;;2.22;1.10;;;;;;;19.27;78.28;96204.88;2071555;28;20687;-79
2022/10/15 10:12:03;;;;;;;3.20;0.80;;;;;;;17.82;82.29;96210.66;2079278;28;20259;-80
2022/10/15 10:13:20;;;;;;;2.20;0.60;;;;;;;18.16;80.99;96207.94;2075582;28;20232;-81
2022/10/15 10:14:32;;;;;;;7.47;0.80;;;;;;;20.42;73.62;96200.91;2095121;28;20227;-80
2022/10/15 10:15:37;;;;;;;2.40;0.70;;;;;;;20.97;71.94;96195.81;2078650;28;20237;-79
2022/10/15 10:17:03;;;;;;;4.30;0.70;;;;;;;21.35;69.59;96212.56;2078974;28;20289;-81
2022/10/15 10:18:05;;;;;;;2.75;0.80;;;;;;;19.93;71.71;96192.94;2076927;28;20254;-80
2022/10/15 10:19:14;;;;;;;1.73;0.88;;;;;;;20.46;70.91;96204.97;2087042;28;20200;-80
2022/10/15 10:20:19;;;;;;;2.17;0.70;;;;;;;21.14;68.75;96201.34;2080744;28;20239;-80
2022/10/15 10:21:29;;;;;;;1.20;0.60;;;;;;;21.43;66.38;96163.22;2078944;28;20606;-81
2022/10/15 10:22:53;;;;;;;1.30;0.60;;;;;;;20.23;70.05;96207.91;2070191;28;20231;-80
2022/10/15 10:23:57;;;;;;;1.75;0.70;;;;;;;18.95;73.94;96188.16;2077452;28;20197;-81
2022/10/15 10:24:59;;;;;;;1.17;0.60;;;;;;;18.92;74.59;96194.56;2078791;28;20205;-79
2022/10/15 10:26:03;;;;;;;2.13;0.80;;;;;;;18.88;74.10;96173.75;2078901;28;20193;-79
2022/10/15 10:27:17;;;;;;;3.65;0.70;;;;;;;19.79;73.12;96183.56;2087730;28;20740;-80
2022/10/15 10:28:45;;;;;;;2.95;0.70;;;;;;;20.71;69.30;96216.84;2081602;28;20652;-80
2022/10/15 10:35:04;;;;;;;4.45;0.70;;;;;;;17.97;77.12;96218.31;2079517;28;20209;-80
2022/10/15 10:36:07;;;;;;;1.10;0.60;;;;;;;17.24;78.88;96210.84;2078505;28;20250;-81
2022/10/15 10:37:11;;;;;;;1.83;0.90;;;;;;;16.86;80.10;96210.22;2087795;28;20656;-79
2022/10/15 10:38:37;;;;;;;2.10;0.70;;;;;;;16.89;81.59;96224.97;2078008;28;20244;-78
2022/10/15 10:39:38;;;;;;;1.60;0.63;;;;;;;16.68;81.33;96220.34;2081209;28;20283;-78
2022/10/15 10:40:39;;;;;;;3.58;0.70;;;;;;;16.57;82.00;96212.41;2093405;28;20242;-79
2022/10/15 10:59:55;;;;;;;2.65;0.68;;;;;;;16.55;81.85;96228.34;2071957;28;20190;-76
2022/10/15 11:00:57;;;;;;;1.80;0.70;;;;;;;16.54;81.54;96233.75;2072419;28;20612;-74
2022/10/15 11:01:58;;;;;;;4.90;0.90;;;;;;;16.36;81.71;96214.88;2072325;28;20206;-75
2022/10/15 11:03:00;;;;;;;2.30;0.68;;;;;;;16.37;81.66;96232.38;2065759;28;20254;-75
2022/10/15 11:04:02;;;;;;;2.03;0.70;;;;;;;16.33;81.63;96237.03;2079708;28;20213;-75
2022/10/15 11:05:04;;;;;;;1.83;0.70;;;;;;;16.27;82.25;96221.69;2075851;28;20193;-75
2022/10/15 11:18:21;;;;;;;1.75;0.77;;;;;;;16.60;79.62;96217.47;2111985;27;20554;-74
2022/10/15 11:19:34;;;;;;;2.42;0.77;;;;;;;16.56;79.85;96198.41;2085399;28;20284;-74
2022/10/15 11:21:24;;;;;;;1.27;0.70;;;;;;;16.81;79.32;96221.09;2085696;28;20659;-74
2022/10/15 11:22:40;;;;;;;4.60;0.85;;;;;;;16.86;78.98;96220.75;2076841;28;20723;-74
2022/10/15 11:24:00;;;;;;;3.22;0.90;;;;;;;17.01;78.12;96223.19;2080707;28;20284;-76
2022/10/15 11:25:32;;;;;;;13.45;1.20;;;;;;;17.08;78.42;96211.22;2081409;28;20546;-73
2022/10/15 11:26:33;;;;;;;1.30;0.70;;;;;;;17.10;78.60;96225.97;2082046;28;20223;-74
2022/10/15 11:28:07;;;;;;;2.88;0.90;;;;;;;16.78;77.99;96226.59;2074769;28;20302;-77
2022/10/15 11:29:29;;;;;;;5.20;1.20;;;;;;;16.87;78.23;96226.88;2086825;28;20196;-74
2022/10/15 11:30:54;;;;;;;1.80;0.90;;;;;;;16.88;77.52;96200.38;2082719;28;20204;-74
2022/10/15 11:32:20;;;;;;;2.25;0.70;;;;;;;16.91;77.48;96187.00;2079694;28;20197;-74
2022/10/15 11:33:38;;;;;;;4.13;1.15;;;;;;;17.19;77.20;96205.94;2072359;28;20229;-71
2022/10/15 11:35:21;;;;;;;6.10;3.03;;;;;;;18.64;72.55;96198.69;2083186;28;20224;-71
2022/10/15 11:36:57;;;;;;;11.80;7.15;;;;;;;18.63;72.72;96191.72;2081872;28;20244;-71
2022/10/15 11:38:26;;;;;;;3.17;0.90;;;;;;;18.28;73.88;96198.13;2068994;28;20260;-71
2022/10/15 11:40:00;;;;;;;3.72;0.75;;;;;;;17.77;74.81;96175.84;2079341;28;20371;-70
2022/10/15 11:41:24;;;;;;;1.85;0.77;;;;;;;17.38;76.18;96204.47;2079671;28;20209;-69
2022/10/15 11:42:40;;;;;;;2.65;0.82;;;;;;;17.30;75.99;96187.44;2082034;28;20631;-69
2022/10/15 11:44:09;;;;;;;2.55;0.90;;;;;;;17.51;75.58;96202.56;2079890;28;20695;-69
2022/10/15 11:45:35;;;;;;;3.10;0.90;;;;;;;17.18;76.58;96200.78;2083955;28;20205;-70
2022/10/15 11:46:49;;;;;;;2.17;0.90;;;;;;;16.92;76.11;96204.47;2083082;28;20193;-69
2022/10/15 12:06:12;;;;;;;4.00;0.90;;;;;;;15.93;81.29;96201.28;2082113;28;20173;-69
2022/10/15 13:46:04;;;;;;;2.75;0.85;;;;;;;14.93;89.92;96179.44;2093159;28;20604;-72
2022/10/15 14:33:53;;;;;;;3.40;1.33;;;;;;;14.84;90.92;96152.00;2107382;27;21056;-71
2022/10/15 14:34:59;;;;;;;16.27;1.77;;;;;;;15.06;91.45;96176.81;2102653;28;20230;-73
2022/10/15 14:36:07;;;;;;;2.55;1.60;;;;;;;15.21;91.72;96177.50;2096599;28;20203;-73
2022/10/15 14:37:27;;;;;;;3.63;1.52;;;;;;;15.20;89.25;96176.69;2095503;28;20203;-74
2022/10/15 14:38:29;;;;;;;4.10;1.13;;;;;;;15.19;89.84;96160.03;2080995;28;20220;-74
2022/10/15 14:39:35;;;;;;;1.75;0.98;;;;;;;15.38;89.23;96169.28;2091914;28;20231;-74
2022/10/15 15:00:25;;;;;;;3.53;0.90;;;;;;;16.03;86.57;96153.25;2109158;27;20531;-73
2022/10/15 15:01:28;;;;;;;3.15;0.90;;;;;;;16.15;85.94;96181.28;2094563;28;20219;-73
2022/10/15 15:02:29;;;;;;;2.20;0.90;;;;;;;16.63;83.20;96169.78;2088846;28;20233;-73
2022/10/15 15:03:39;;;;;;;2.22;0.90;;;;;;;16.63;82.53;96167.16;2071182;28;20227;-74
2022/10/15 15:04:44;;;;;;;1.90;0.70;;;;;;;16.43;82.02;96155.47;2087212;28;20207;-74
2022/10/15 15:05:47;;;;;;;2.10;0.93;;;;;;;16.40;83.09;96168.91;2085512;28;20627;-72
2022/10/15 15:06:48;;;;;;;2.33;0.90;;;;;;;16.28;83.35;96179.41;2097147;28;20703;-73
2022/10/15 15:07:50;;;;;;;2.20;1.00;;;;;;;16.23;83.20;96167.56;2089179;28;20223;-74
2022/10/15 15:08:51;;;;;;;2.92;1.20;;;;;;;16.05;83.86;96139.00;2096433;28;20223;-73
2022/10/15 15:09:53;;;;;;;2.45;1.13;;;;;;;16.18;83.44;96161.78;2088123;28;20245;-73
2022/10/15 15:10:58;;;;;;;5.90;1.98;;;;;;;16.19;83.40;96160.81;2086676;28;20200;-74
2022/10/15 15:12:00;;;;;;;1.40;0.80;;;;;;;16.03;83.71;96147.97;2088437;28;20225;-74
2022/10/15 15:13:01;;;;;;;1.50;0.90;;;;;;;16.02;83.40;96157.66;2085596;28;20301;-74
2022/10/15 15:14:03;;;;;;;2.95;0.80;;;;;;;16.09;83.37;96172.03;2096891;28;20237;-74
2022/10/15 15:15:16;;;;;;;1.63;0.90;;;;;;;16.13;83.21;96175.28;2096611;28;20214;-73
2022/10/15 15:16:18;;;;;;;2.28;0.90;;;;;;;16.08;83.36;96162.47;2103830;28;20674;-74
2022/10/15 15:17:22;;;;;;;3.58;0.90;;;;;;;16.04;83.50;96152.28;2096205;28;20231;-74
2022/10/15 15:34:42;;;;;;;1.63;0.93;;;;;;;17.85;75.63;96167.31;2104661;28;102946;-71
2022/10/15 15:35:51;;;;;;;1.20;0.70;;;;;;;18.04;75.29;96170.16;2113872;28;20614;-72
2022/10/15 15:36:52;;;;;;;3.38;0.93;;;;;;;17.60;76.34;96172.78;2111771;28;20229;-71
2022/10/15 15:37:54;;;;;;;3.67;0.80;;;;;;;17.22;77.69;96176.69;2106687;27;20610;-71
2022/10/15 15:38:57;;;;;;;1.73;0.80;;;;;;;16.94;78.85;96154.28;2120839;27;20235;-72
2022/10/15 15:39:59;;;;;;;4.20;1.00;;;;;;;16.81;80.50;96176.28;2120862;27;20205;-72
2022/10/15 15:41:03;;;;;;;2.95;1.00;;;;;;;16.70;80.50;96160.44;2115808;28;20217;-71
2022/10/15 15:42:04;;;;;;;4.22;1.23;;;;;;;16.75;81.06;96175.94;2118428;28;20285;-72
2022/10/15 15:43:07;;;;;;;1.90;0.80;;;;;;;16.78;80.67;96159.84;2106535;28;20301;-71
2022/10/15 15:44:10;;;;;;;1.50;0.70;;;;;;;16.93;79.83;96174.50;2100905;28;20229;-72
2022/10/15 15:45:23;;;;;;;2.22;0.70;;;;;;;16.61;81.21;96179.63;2104178;28;20202;-71
2022/10/15 16:29:15;;;;;;;4.43;1.25;;;;;;;14.78;89.13;96213.75;2107642;27;20524;-70
2022/10/15 16:30:20;;;;;;;4.07;1.15;;;;;;;14.83;88.74;96224.78;2095261;28;20656;-71
